createdAt,value
2022-11-03T00:01:09.978Z,17.50
2022-11-03T00:06:12.980Z,14.50
2022-11-03T00:11:16.214Z,14.00
2022-11-03T00:16:19.359Z,17.70
2022-11-03T00:21:22.692Z,9.90
2022-11-03T00:26:29.158Z,9.00
2022-11-03T00:31:36.018Z,9.50
2022-11-03T00:36:44.831Z,11.50
2022-11-03T00:41:47.781Z,11.30
2022-11-03T00:46:50.807Z,11.00
2022-11-03T00:51:53.772Z,10.10
2022-11-03T00:56:56.695Z,12.20
2022-11-03T01:01:59.714Z,11.30
2022-11-03T01:07:05.247Z,11.90
2022-11-03T01:12:13.780Z,12.30
2022-11-03T01:17:24.632Z,10.30
2022-11-03T01:22:27.939Z,12.50
2022-11-03T01:27:30.888Z,11.20
2022-11-03T01:32:33.832Z,11.10
2022-11-03T01:37:36.836Z,8.80
2022-11-03T01:42:39.808Z,8.60
2022-11-03T01:47:44.552Z,11.80
2022-11-03T01:52:54.950Z,9.50
2022-11-03T01:58:29.370Z,10.20
2022-11-03T02:03:41.339Z,11.30
2022-11-03T02:09:02.006Z,10.90
2022-11-03T02:14:05.009Z,11.50
2022-11-03T02:19:39.399Z,10.80
2022-11-03T02:24:55.794Z,14.30
2022-11-03T02:30:00.433Z,11.90
2022-11-03T02:35:15.963Z,13.30
2022-11-03T02:40:29.463Z,8.80
2022-11-03T02:45:32.781Z,13.00
2022-11-03T02:50:35.875Z,12.10
2022-11-03T02:55:48.914Z,10.20
2022-11-03T03:01:22.628Z,9.80
2022-11-03T03:06:35.698Z,16.50
2022-11-03T03:11:43.683Z,13.50
2022-11-03T03:17:01.768Z,8.70
2022-11-03T03:22:40.053Z,10.20
2022-11-03T03:27:51.583Z,9.70
2022-11-03T03:32:57.004Z,9.50
2022-11-03T03:38:08.152Z,11.40
2022-11-03T03:43:15.095Z,9.60
2022-11-03T03:48:18.786Z,18.30
2022-11-03T03:53:22.067Z,14.90
2022-11-03T03:58:25.106Z,12.50
2022-11-03T04:03:29.530Z,12.40
2022-11-03T04:08:32.609Z,13.40
2022-11-03T04:13:54.391Z,9.50
2022-11-03T04:19:16.174Z,10.70
2022-11-03T04:24:19.070Z,10.20
2022-11-03T04:29:22.081Z,8.80
2022-11-03T04:34:25.532Z,12.90
2022-11-03T04:39:28.662Z,13.70
2022-11-03T04:44:31.763Z,15.60
2022-11-03T04:49:34.729Z,10.70
2022-11-03T04:54:37.837Z,9.70
2022-11-03T04:59:44.816Z,12.00
2022-11-03T05:04:47.935Z,13.30
2022-11-03T05:09:52.169Z,9.50
2022-11-03T05:14:58.829Z,17.20
2022-11-03T05:20:04.102Z,11.20
2022-11-03T05:25:44.888Z,12.00
2022-11-03T05:30:49.773Z,11.80
2022-11-03T05:35:53.406Z,12.50
2022-11-03T05:40:56.632Z,11.30
2022-11-03T05:46:03.395Z,15.70
2022-11-03T05:51:32.266Z,22.00
2022-11-03T05:56:35.392Z,20.40
2022-11-03T06:01:42.114Z,24.50
2022-11-03T06:07:02.074Z,21.30
2022-11-03T06:12:08.167Z,21.60
2022-11-03T06:17:24.204Z,19.00
2022-11-03T06:22:45.836Z,26.70
2022-11-03T06:27:49.541Z,22.50
2022-11-03T06:32:55.121Z,26.90
2022-11-03T06:37:58.281Z,23.30
2022-11-03T06:43:16.255Z,26.90
2022-11-03T06:48:32.822Z,27.50
2022-11-03T06:53:36.934Z,22.30
2022-11-03T06:58:41.494Z,28.10
2022-11-03T07:03:44.771Z,23.40
2022-11-03T07:08:58.300Z,30.50
2022-11-03T07:14:17.957Z,30.20
2022-11-03T07:19:30.025Z,32.00
2022-11-03T07:24:46.813Z,35.40
2022-11-03T07:29:52.752Z,24.50
2022-11-03T07:35:05.854Z,17.70
2022-11-03T07:40:29.253Z,14.60
2022-11-03T07:46:02.097Z,17.50
2022-11-03T07:51:38.753Z,21.60
2022-11-03T07:56:58.313Z,23.40
2022-11-03T08:02:03.324Z,26.20
2022-11-03T08:07:06.488Z,27.20
2022-11-03T08:12:09.451Z,19.50
2022-11-03T08:17:12.433Z,18.60
2022-11-03T08:22:15.548Z,12.60
2022-11-03T08:27:19.661Z,9.70
2022-11-03T08:32:22.619Z,10.50
2022-11-03T08:37:25.539Z,10.90
2022-11-03T08:42:28.446Z,11.00
2022-11-03T08:47:31.500Z,11.50
2022-11-03T08:52:34.459Z,11.00
2022-11-03T08:57:37.438Z,10.40
2022-11-03T09:02:40.497Z,9.60
2022-11-03T09:13:06.989Z,11.70
2022-11-03T09:18:10.748Z,9.60
2022-11-03T09:23:14.077Z,11.90
2022-11-03T09:28:18.323Z,11.10
2022-11-03T09:33:21.327Z,9.20
2022-11-03T09:38:24.299Z,11.50
2022-11-03T09:43:27.395Z,13.90
2022-11-03T09:48:30.551Z,11.90
2022-11-03T09:53:33.537Z,12.30
2022-11-03T09:58:37.490Z,8.50
2022-11-03T10:03:40.795Z,11.40
2022-11-03T10:08:46.866Z,8.40
2022-11-03T10:13:56.391Z,12.60
2022-11-03T10:19:01.082Z,12.10
2022-11-03T10:24:04.828Z,10.90
2022-11-03T10:29:10.842Z,12.00
2022-11-03T10:34:34.353Z,9.80
2022-11-03T10:39:37.783Z,8.00
2022-11-03T10:44:40.766Z,10.30
2022-11-03T10:49:44.062Z,13.90
2022-11-03T10:54:48.904Z,13.70
2022-11-03T10:59:54.410Z,10.60
2022-11-03T11:05:10.055Z,10.40
2022-11-03T11:10:20.280Z,10.20
2022-11-03T11:15:46.222Z,16.90
2022-11-03T11:20:49.163Z,8.50
2022-11-03T11:26:10.705Z,6.70
2022-11-03T11:31:34.453Z,11.40
2022-11-03T11:37:07.880Z,10.20
2022-11-03T11:42:17.914Z,9.60
2022-11-03T11:47:50.095Z,11.70
2022-11-03T11:52:58.877Z,13.00
2022-11-03T11:58:05.601Z,12.70
2022-11-03T12:03:08.944Z,12.70
2022-11-03T12:08:21.401Z,14.60
2022-11-03T12:13:51.610Z,10.10
2022-11-03T12:18:55.462Z,11.60
2022-11-03T12:23:58.411Z,10.30
2022-11-03T12:29:01.403Z,15.60
2022-11-03T12:34:04.389Z,12.40
2022-11-03T12:39:07.395Z,10.20
2022-11-03T12:44:10.472Z,9.50
2022-11-03T12:49:13.606Z,11.10
2022-11-03T12:54:16.602Z,14.10
2022-11-03T12:59:19.512Z,10.10
2022-11-03T13:04:23.281Z,13.90
2022-11-03T13:09:26.441Z,13.10
2022-11-03T13:14:29.600Z,12.70
2022-11-03T13:19:32.537Z,9.00
2022-11-03T13:24:35.875Z,10.70
2022-11-03T13:29:39.256Z,9.90
2022-11-03T13:34:42.557Z,8.60
2022-11-03T13:39:46.351Z,8.60
2022-11-03T13:44:50.705Z,11.90
2022-11-03T13:50:13.019Z,13.90
2022-11-03T14:00:41.064Z,11.90
2022-11-03T14:05:44.147Z,11.60
2022-11-03T14:10:47.193Z,10.00
2022-11-03T14:15:50.281Z,11.00
2022-11-03T14:20:53.607Z,13.70
2022-11-03T14:26:07.010Z,9.00
2022-11-03T14:31:19.499Z,32.30
2022-11-03T14:36:22.911Z,22.70
2022-11-03T14:41:45.138Z,94.60
2022-11-03T14:46:48.734Z,159.40
2022-11-03T14:51:51.681Z,24.00
2022-11-03T14:56:55.539Z,25.30
2022-11-03T15:02:00.083Z,13.70
2022-11-03T15:07:03.253Z,45.60
2022-11-03T15:12:06.483Z,20.90
2022-11-03T15:17:09.493Z,20.20
2022-11-03T15:22:13.631Z,22.10
2022-11-03T15:27:17.571Z,17.20
2022-11-03T15:32:21.285Z,16.70
2022-11-03T15:37:24.370Z,14.10
2022-11-03T15:42:27.797Z,19.00
2022-11-03T15:47:31.824Z,16.80
2022-11-03T15:52:38.938Z,21.40
2022-11-03T15:57:42.122Z,16.50
2022-11-03T16:02:51.933Z,26.60
2022-11-03T16:07:55.058Z,22.60
2022-11-03T16:12:58.041Z,23.80
2022-11-03T16:18:02.908Z,37.20
2022-11-03T16:23:06.006Z,129.30
2022-11-03T16:28:09.381Z,95.70
2022-11-03T16:33:12.724Z,219.00
2022-11-03T16:38:15.839Z,108.20
2022-11-03T16:43:19.207Z,77.10
2022-11-03T16:48:22.438Z,119.50
2022-11-03T16:53:25.410Z,61.90
2022-11-03T16:58:28.407Z,44.50
2022-11-03T17:03:31.411Z,25.60
2022-11-03T17:13:57.332Z,75.70
2022-11-03T17:19:00.389Z,319.50
2022-11-03T17:24:06.910Z,55.50
2022-11-03T17:29:17.235Z,44.40
2022-11-03T17:34:25.670Z,81.90
2022-11-03T17:39:34.293Z,34.10
2022-11-03T17:44:37.237Z,35.90
2022-11-03T17:49:41.013Z,66.60
2022-11-03T17:54:44.515Z,72.80
2022-11-03T17:59:52.327Z,98.70
2022-11-03T18:05:09.516Z,133.40
2022-11-03T18:10:12.681Z,180.00
2022-11-03T18:15:20.802Z,210.30
2022-11-03T18:20:29.494Z,69.30
2022-11-03T18:25:32.508Z,65.40
2022-11-03T18:30:35.621Z,70.00
2022-11-03T18:35:38.609Z,73.10
2022-11-03T18:40:44.463Z,88.10
2022-11-03T18:45:48.063Z,43.50
2022-11-03T18:50:56.704Z,42.70
2022-11-03T18:56:01.641Z,33.10
2022-11-03T19:01:04.765Z,33.10
2022-11-03T19:06:10.355Z,31.80
2022-11-03T19:11:14.838Z,28.80
2022-11-03T19:16:24.893Z,31.50
2022-11-03T19:21:28.227Z,77.10
2022-11-03T19:26:37.258Z,122.40
2022-11-03T19:31:49.057Z,220.20
2022-11-03T19:36:53.293Z,93.40
2022-11-03T19:42:20.434Z,54.10
2022-11-03T19:47:28.340Z,50.40
2022-11-03T19:52:35.291Z,34.70
2022-11-03T19:57:38.285Z,60.60
2022-11-03T20:02:41.363Z,43.30
2022-11-03T20:07:44.497Z,52.30
2022-11-03T20:12:47.776Z,42.40
2022-11-03T20:17:51.213Z,52.50
2022-11-03T20:22:59.810Z,55.80
2022-11-03T20:28:18.692Z,229.40
2022-11-03T20:33:25.337Z,216.70
2022-11-03T20:38:29.219Z,126.00
2022-11-03T20:43:40.180Z,77.40
2022-11-03T20:48:43.153Z,44.90
2022-11-03T20:53:47.875Z,228.00
2022-11-03T20:58:51.499Z,207.60
2022-11-03T21:04:01.545Z,80.10
2022-11-03T21:09:05.433Z,42.40
2022-11-03T21:14:29.704Z,35.00
2022-11-03T21:19:42.986Z,92.40
2022-11-03T21:24:46.276Z,92.90
2022-11-03T21:29:59.112Z,102.50
2022-11-03T21:35:02.804Z,85.00
2022-11-03T21:40:06.945Z,72.40
2022-11-03T21:45:10.301Z,53.30
2022-11-03T21:50:13.366Z,46.90
2022-11-03T21:55:16.313Z,42.30
2022-11-03T22:00:19.372Z,42.60
2022-11-03T22:05:22.827Z,34.20
2022-11-03T22:10:26.021Z,40.10
2022-11-03T22:15:47.761Z,43.70
2022-11-03T22:21:09.411Z,58.20
2022-11-03T22:26:34.676Z,37.50
2022-11-03T22:31:40.777Z,36.90
2022-11-03T22:36:43.712Z,32.60
2022-11-03T22:42:06.705Z,35.20
2022-11-03T22:47:11.321Z,36.50
2022-11-03T22:52:16.257Z,43.30
2022-11-03T22:57:19.174Z,68.40
2022-11-03T23:02:22.233Z,35.40
2022-11-03T23:07:31.172Z,32.30
2022-11-03T23:12:35.374Z,22.40
2022-11-03T23:17:56.951Z,21.00
2022-11-03T23:22:59.881Z,26.30
2022-11-03T23:28:02.799Z,20.50
2022-11-03T23:33:05.991Z,17.20
2022-11-03T23:38:09.716Z,23.40
2022-11-03T23:43:13.174Z,18.70
2022-11-03T23:48:34.747Z,16.60
2022-11-03T23:53:37.772Z,15.70
2022-11-03T23:58:40.760Z,20.10
